Time,TemperatureF,DewpointF,PressureIn,WindDirection,WindDirectionDegrees,WindSpeedMPH,WindSpeedGustMPH,Humidity,HourlyPrecipIn,Conditions,Clouds,dailyrainin,SolarRadiationWatts/m^2,SoftwareType,DateUTC
2013-05-02 00:00:00,57.2,39.2,30.26,SE,128,0.0,2.0,51,0.00,,---,0.00,0.00,VWS V14.00,2013-05-02 04:00:00,
2013-05-02 00:01:00,57.2,39.2,30.26,SE,128,0.0,2.0,51,0.00,,---,0.00,0.00,VWS V14.00,2013-05-02 04:01:00,
2013-05-02 00:06:00,56.8,38.9,30.26,SE,128,0.0,0.0,51,0.00,,---,0.00,0.00,VWS V14.00,2013-05-02 04:06:00,
2013-05-02 00:11:00,56.6,38.7,30.25,SE,128,0.0,0.0,51,0.00,,---,0.00,0.00,VWS V14.00,2013-05-02 04:11:00,
2013-05-02 00:16:00,56.6,38.7,30.25,SE,128,0.0,1.0,51,0.00,,---,0.00,0.00,VWS V14.00,2013-05-02 04:16:00,
2013-05-02 00:21:00,56.5,38.6,30.25,SE,128,0.0,1.0,51,0.00,,---,0.00,0.00,VWS V14.00,2013-05-02 04:21:00,
2013-05-02 00:26:00,56.4,39.0,30.26,SE,128,0.0,1.0,52,0.00,,---,0.00,0.00,VWS V14.00,2013-05-02 04:26:00,
2013-05-02 00:30:00,56.2,38.8,30.26,SE,128,1.0,2.0,52,0.00,,---,0.00,0.00,VWS V14.00,2013-05-02 04:30:00,
2013-05-02 00:31:00,56.2,38.3,30.26,SE,128,0.0,1.0,51,0.00,,---,0.00,0.00,VWS V14.00,2013-05-02 04:31:00,
2013-05-02 00:36:00,56.3,38.9,30.26,SE,128,0.0,1.0,52,0.00,,---,0.00,0.00,VWS V14.00,2013-05-02 04:36:00,
2013-05-02 00:41:00,56.1,38.7,30.26,SE,128,0.0,1.0,52,0.00,,---,0.00,0.00,VWS V14.00,2013-05-02 04:41:00,
2013-05-02 00:46:00,56.1,38.7,30.26,SE,127,2.0,2.0,52,0.00,,---,0.00,0.00,VWS V14.00,2013-05-02 04:46:00,
2013-05-02 00:51:00,55.6,38.8,30.27,North,5,1.0,3.0,53,0.00,,---,0.00,0.00,VWS V14.00,2013-05-02 04:51:00,
2013-05-02 00:56:00,55.4,38.6,30.27,North,5,0.0,3.0,53,0.00,,---,0.00,0.00,VWS V14.00,2013-05-02 04:56:00,
2013-05-02 01:00:00,55.1,38.8,30.26,North,5,1.0,3.0,54,0.00,,---,0.00,0.00,VWS V14.00,2013-05-02 05:00:00,
2013-05-02 01:01:00,55.1,38.8,30.26,North,5,2.0,2.0,54,0.00,,---,0.00,0.00,VWS V14.00,2013-05-02 05:01:00,
2013-05-02 01:06:00,54.7,38.9,30.26,North,5,0.0,2.0,55,0.00,,---,0.00,0.00,VWS V14.00,2013-05-02 05:06:00,
2013-05-02 01:11:00,54.5,39.6,30.27,North,5,0.0,2.0,57,0.00,,---,0.00,0.00,VWS V14.00,2013-05-02 05:11:00,
2013-05-02 01:16:00,54.0,39.6,30.27,North,5,0.0,2.0,58,0.00,,---,0.00,0.00,VWS V14.00,2013-05-02 05:16:00,
2013-05-02 01:21:00,53.6,39.2,30.27,North,5,0.0,2.0,58,0.00,,---,0.00,0.00,VWS V14.00,2013-05-02 05:21:00,
2013-05-02 01:27:00,53.1,40.8,30.27,North,5,0.0,2.0,63,0.00,,---,0.00,0.00,VWS V14.00,2013-05-02 05:27:00,
2013-05-02 01:30:00,52.5,40.7,30.27,North,5,0.0,2.0,64,0.00,,---,0.00,0.00,VWS V14.00,2013-05-02 05:30:00,
2013-05-02 01:31:00,52.5,40.7,30.27,North,5,0.0,0.0,64,0.00,,---,0.00,0.00,VWS V14.00,2013-05-02 05:31:00,
2013-05-02 01:36:00,51.8,40.0,30.26,North,5,0.0,0.0,64,0.00,,---,0.00,0.00,VWS V14.00,2013-05-02 05:36:00,
2013-05-02 01:42:00,51.3,40.3,30.27,North,5,0.0,0.0,66,0.00,,---,0.00,0.00,VWS V14.00,2013-05-02 05:42:00,
2013-05-02 01:47:00,50.8,41.0,30.27,North,5,0.0,0.0,69,0.00,,---,0.00,0.00,VWS V14.00,2013-05-02 05:47:00,
2013-05-02 01:52:00,50.1,40.3,30.27,North,5,0.0,0.0,69,0.00,,---,0.00,0.00,VWS V14.00,2013-05-02 05:52:00,
2013-05-02 01:57:00,49.3,39.6,30.27,North,5,0.0,0.0,69,0.00,,---,0.00,0.00,VWS V14.00,2013-05-02 05:57:00,
2013-05-02 02:00:00,48.9,39.6,30.27,North,5,0.0,0.0,70,0.00,,---,0.00,0.00,VWS V14.00,2013-05-02 06:00:00,
2013-05-02 02:02:00,48.9,39.9,30.27,North,5,0.0,0.0,71,0.00,,---,0.00,0.00,VWS V14.00,2013-05-02 06:02:00,
2013-05-02 02:07:00,48.6,40.0,30.27,North,5,0.0,0.0,72,0.00,,---,0.00,0.00,VWS V14.00,2013-05-02 06:07:00,
2013-05-02 02:12:00,48.3,39.7,30.27,North,5,0.0,0.0,72,0.00,,---,0.00,0.00,VWS V14.00,2013-05-02 06:12:00,
2013-05-02 02:17:00,48.1,39.9,30.27,North,5,0.0,0.0,73,0.00,,---,0.00,0.00,VWS V14.00,2013-05-02 06:17:00,
2013-05-02 02:22:00,47.8,39.9,30.27,North,5,0.0,0.0,74,0.00,,---,0.00,0.00,VWS V14.00,2013-05-02 06:22:00,
2013-05-02 02:27:00,47.6,39.7,30.27,North,5,0.0,0.0,74,0.00,,---,0.00,0.00,VWS V14.00,2013-05-02 06:27:00,
2013-05-02 02:30:00,47.3,39.8,30.26,North,5,0.0,0.0,75,0.00,,---,0.00,0.00,VWS V14.00,2013-05-02 06:30:00,
2013-05-02 02:32:00,47.3,39.8,30.26,North,5,0.0,0.0,75,0.00,,---,0.00,0.00,VWS V14.00,2013-05-02 06:32:00,
2013-05-02 02:37:00,46.9,39.7,30.27,North,5,0.0,0.0,76,0.00,,---,0.00,0.00,VWS V14.00,2013-05-02 06:37:00,
2013-05-02 02:42:00,46.6,39.5,30.27,North,5,0.0,0.0,76,0.00,,---,0.00,0.00,VWS V14.00,2013-05-02 06:42:00,
2013-05-02 02:47:00,46.3,39.5,30.27,North,5,0.0,0.0,77,0.00,,---,0.00,0.00,VWS V14.00,2013-05-02 06:47:00,
2013-05-02 02:52:00,45.9,39.1,30.27,North,5,0.0,0.0,77,0.00,,---,0.00,0.00,VWS V14.00,2013-05-02 06:52:00,
2013-05-02 02:57:00,45.7,38.9,30.27,North,5,0.0,0.0,77,0.00,,---,0.00,0.00,VWS V14.00,2013-05-02 06:57:00,
2013-05-02 03:00:00,45.5,39.0,30.26,North,5,0.0,0.0,78,0.00,,---,0.00,0.00,VWS V14.00,2013-05-02 07:00:00,
2013-05-02 03:02:00,45.4,39.0,30.27,North,5,0.0,0.0,78,0.00,,---,0.00,0.00,VWS V14.00,2013-05-02 07:02:00,
2013-05-02 03:07:00,45.2,39.1,30.27,North,5,0.0,0.0,79,0.00,,---,0.00,0.00,VWS V14.00,2013-05-02 07:07:00,
2013-05-02 03:12:00,45.0,39.2,30.26,North,5,0.0,0.0,80,0.00,,---,0.00,0.00,VWS V14.00,2013-05-02 07:12:00,
2013-05-02 03:17:00,44.9,39.1,30.27,North,5,0.0,0.0,80,0.00,,---,0.00,0.00,VWS V14.00,2013-05-02 07:17:00,
2013-05-02 03:22:00,44.8,39.7,30.27,North,5,0.0,0.0,82,0.00,,---,0.00,0.00,VWS V14.00,2013-05-02 07:22:00,
2013-05-02 03:27:00,44.6,39.5,30.27,North,5,0.0,0.0,82,0.00,,---,0.00,0.00,VWS V14.00,2013-05-02 07:27:00,
2013-05-02 03:30:00,44.4,39.3,30.27,North,5,0.0,0.0,82,0.00,,---,0.00,0.00,VWS V14.00,2013-05-02 07:30:00,
2013-05-02 03:32:00,44.3,38.8,30.27,North,5,0.0,0.0,81,0.00,,---,0.00,0.00,VWS V14.00,2013-05-02 07:32:00,
2013-05-02 03:37:00,44.1,38.7,30.27,North,5,0.0,0.0,81,0.00,,---,0.00,0.00,VWS V14.00,2013-05-02 07:37:00,
2013-05-02 03:42:00,43.8,38.7,30.27,North,5,0.0,0.0,82,0.00,,---,0.00,0.00,VWS V14.00,2013-05-02 07:42:00,
2013-05-02 03:47:00,43.7,38.9,30.27,North,5,0.0,0.0,83,0.00,,---,0.00,0.00,VWS V14.00,2013-05-02 07:47:00,
2013-05-02 03:52:00,43.7,38.9,30.27,North,5,0.0,0.0,83,0.00,,---,0.00,0.00,VWS V14.00,2013-05-02 07:52:00,
2013-05-02 03:57:00,43.6,39.1,30.28,North,5,0.0,1.0,84,0.00,,---,0.00,0.00,VWS V14.00,2013-05-02 07:57:00,
2013-05-02 04:00:00,43.7,38.9,30.28,North,5,0.0,1.0,83,0.00,,---,0.00,0.00,VWS V14.00,2013-05-02 08:00:00,
2013-05-02 04:02:00,43.7,38.9,30.28,North,5,0.0,0.0,83,0.00,,---,0.00,0.00,VWS V14.00,2013-05-02 08:02:00,
2013-05-02 04:07:00,43.7,38.9,30.28,North,5,0.0,1.0,83,0.00,,---,0.00,0.00,VWS V14.00,2013-05-02 08:07:00,
2013-05-02 04:12:00,43.6,38.8,30.28,North,5,0.0,1.0,83,0.00,,---,0.00,0.00,VWS V14.00,2013-05-02 08:12:00,
2013-05-02 04:17:00,43.6,39.1,30.28,North,5,0.0,1.0,84,0.00,,---,0.00,0.00,VWS V14.00,2013-05-02 08:17:00,
2013-05-02 04:22:00,43.5,39.3,30.28,North,5,0.0,2.0,85,0.00,,---,0.00,0.00,VWS V14.00,2013-05-02 08:22:00,
2013-05-02 04:27:00,43.5,38.7,30.28,North,5,0.0,2.0,83,0.00,,---,0.00,0.00,VWS V14.00,2013-05-02 08:27:00,
2013-05-02 04:30:00,43.5,38.7,30.28,North,5,0.0,2.0,83,0.00,,---,0.00,0.00,VWS V14.00,2013-05-02 08:30:00,
2013-05-02 04:32:00,43.4,38.6,30.29,North,5,0.0,1.0,83,0.00,,---,0.00,0.00,VWS V14.00,2013-05-02 08:32:00,
2013-05-02 04:37:00,43.5,38.7,30.29,North,5,0.0,1.0,83,0.00,,---,0.00,0.00,VWS V14.00,2013-05-02 08:37:00,
2013-05-02 04:42:00,43.3,38.8,30.29,North,5,0.0,1.0,84,0.00,,---,0.00,0.00,VWS V14.00,2013-05-02 08:42:00,
2013-05-02 04:48:00,43.0,38.5,30.29,North,5,0.0,1.0,84,0.00,,---,0.00,0.00,VWS V14.00,2013-05-02 08:48:00,
2013-05-02 04:53:00,42.7,38.5,30.29,North,5,0.0,1.0,85,0.00,,---,0.00,0.00,VWS V14.00,2013-05-02 08:53:00,
2013-05-02 04:58:00,42.5,38.6,30.29,North,5,0.0,1.0,86,0.00,,---,0.00,0.00,VWS V14.00,2013-05-02 08:58:00,
2013-05-02 05:00:00,42.5,38.6,30.29,North,5,0.0,1.0,86,0.00,,---,0.00,0.00,VWS V14.00,2013-05-02 09:00:00,
2013-05-02 05:03:00,42.5,38.6,30.29,North,5,0.0,0.0,86,0.00,,---,0.00,0.00,VWS V14.00,2013-05-02 09:03:00,
2013-05-02 05:08:00,42.4,38.8,30.28,North,5,1.0,1.0,87,0.00,,---,0.00,0.00,VWS V14.00,2013-05-02 09:08:00,
2013-05-02 05:13:00,42.4,38.8,30.28,North,5,0.0,2.0,87,0.00,,---,0.00,0.00,VWS V14.00,2013-05-02 09:13:00,
2013-05-02 05:18:00,42.2,38.3,30.28,North,5,0.0,2.0,86,0.00,,---,0.00,0.00,VWS V14.00,2013-05-02 09:18:00,
2013-05-02 05:23:00,41.8,37.9,30.28,North,5,0.0,2.0,86,0.00,,---,0.00,0.00,VWS V14.00,2013-05-02 09:23:00,
2013-05-02 05:28:00,41.4,37.8,30.29,North,5,0.0,2.0,87,0.00,,---,0.00,0.00,VWS V14.00,2013-05-02 09:28:00,
2013-05-02 05:30:00,41.3,38.0,30.29,North,5,0.0,2.0,88,0.00,,---,0.00,0.00,VWS V14.00,2013-05-02 09:30:00,
2013-05-02 05:33:00,41.2,37.9,30.29,North,5,0.0,0.0,88,0.00,,---,0.00,0.00,VWS V14.00,2013-05-02 09:33:00,
2013-05-02 05:38:00,40.9,37.9,30.29,North,5,0.0,0.0,89,0.00,,---,0.00,0.00,VWS V14.00,2013-05-02 09:38:00,
2013-05-02 05:43:00,40.7,38.0,30.29,North,5,0.0,0.0,90,0.00,,---,0.00,0.00,VWS V14.00,2013-05-02 09:43:00,
2013-05-02 05:48:00,40.5,37.5,30.29,North,5,0.0,0.0,89,0.00,,---,0.00,0.00,VWS V14.00,2013-05-02 09:48:00,
2013-05-02 05:53:00,40.3,37.6,30.29,North,5,0.0,0.0,90,0.00,,---,0.00,0.00,VWS V14.00,2013-05-02 09:53:00,
2013-05-02 05:58:00,40.3,37.9,30.29,North,5,0.0,0.0,91,0.00,,---,0.00,0.00,VWS V14.00,2013-05-02 09:58:00,
2013-05-02 06:00:00,40.5,38.1,30.29,North,5,0.0,0.0,91,0.00,,---,0.00,0.00,VWS V14.00,2013-05-02 10:00:00,
2013-05-02 06:03:00,40.5,38.1,30.29,North,5,0.0,0.0,91,0.00,,---,0.00,0.00,VWS V14.00,2013-05-02 10:03:00,
2013-05-02 06:08:00,40.6,37.9,30.29,North,5,0.0,0.0,90,0.00,,---,0.00,0.00,VWS V14.00,2013-05-02 10:08:00,
2013-05-02 06:13:00,40.4,37.7,30.29,North,5,0.0,0.0,90,0.00,,---,0.00,0.00,VWS V14.00,2013-05-02 10:13:00,
2013-05-02 06:18:00,40.2,37.5,30.29,North,5,0.0,0.0,90,0.00,,---,0.00,0.00,VWS V14.00,2013-05-02 10:18:00,
2013-05-02 06:23:00,40.2,37.8,30.29,North,5,0.0,1.0,91,0.00,,---,0.00,7.00,VWS V14.00,2013-05-02 10:23:00,
2013-05-02 06:28:00,40.0,37.3,30.29,North,5,0.0,1.0,90,0.00,,---,0.00,9.00,VWS V14.00,2013-05-02 10:28:00,
2013-05-02 06:30:00,39.8,37.1,30.29,North,5,0.0,1.0,90,0.00,,---,0.00,11.00,VWS V14.00,2013-05-02 10:30:00,
2013-05-02 06:33:00,39.8,37.1,30.30,North,5,0.0,0.0,90,0.00,,---,0.00,11.00,VWS V14.00,2013-05-02 10:33:00,
2013-05-02 06:38:00,39.8,37.4,30.30,North,5,0.0,0.0,91,0.00,,---,0.00,14.00,VWS V14.00,2013-05-02 10:38:00,
2013-05-02 06:43:00,39.7,37.3,30.30,North,5,0.0,0.0,91,0.00,,---,0.00,16.00,VWS V14.00,2013-05-02 10:43:00,
2013-05-02 06:48:00,39.6,37.2,30.30,North,5,0.0,0.0,91,0.00,,---,0.00,18.00,VWS V14.00,2013-05-02 10:48:00,
2013-05-02 06:53:00,39.5,37.4,30.30,North,5,0.0,0.0,92,0.00,,---,0.00,19.00,VWS V14.00,2013-05-02 10:53:00,
2013-05-02 06:58:00,39.5,37.4,30.30,North,5,0.0,0.0,92,0.00,,---,0.00,21.00,VWS V14.00,2013-05-02 10:58:00,
2013-05-02 07:00:00,39.5,37.4,30.30,North,5,0.0,0.0,92,0.00,,---,0.00,23.00,VWS V14.00,2013-05-02 11:00:00,
2013-05-02 07:03:00,39.6,37.5,30.30,North,5,0.0,0.0,92,0.00,,---,0.00,25.00,VWS V14.00,2013-05-02 11:03:00,
2013-05-02 07:08:00,39.7,37.8,30.30,North,5,0.0,0.0,93,0.00,,---,0.00,26.00,VWS V14.00,2013-05-02 11:08:00,
2013-05-02 07:13:00,39.9,38.0,30.30,North,5,0.0,0.0,93,0.00,,---,0.00,28.00,VWS V14.00,2013-05-02 11:13:00,
2013-05-02 07:18:00,40.1,38.5,30.30,North,5,0.0,0.0,94,0.00,,---,0.00,30.00,VWS V14.00,2013-05-02 11:18:00,
2013-05-02 07:23:00,40.4,38.8,30.30,North,5,0.0,0.0,94,0.00,,---,0.00,40.00,VWS V14.00,2013-05-02 11:23:00,
2013-05-02 07:28:00,40.7,39.4,30.30,North,5,0.0,0.0,95,0.00,,---,0.00,42.00,VWS V14.00,2013-05-02 11:28:00,
2013-05-02 07:30:00,41.0,39.7,30.30,North,5,0.0,0.0,95,0.00,,---,0.00,56.00,VWS V14.00,2013-05-02 11:30:00,
2013-05-02 07:33:00,41.3,40.0,30.31,North,5,0.0,0.0,95,0.00,,---,0.00,65.00,VWS V14.00,2013-05-02 11:33:00,
2013-05-02 07:38:00,42.0,40.7,30.31,North,5,0.0,0.0,95,0.00,,---,0.00,67.00,VWS V14.00,2013-05-02 11:38:00,
2013-05-02 07:43:00,42.5,41.2,30.31,North,5,0.0,0.0,95,0.00,,---,0.00,54.00,VWS V14.00,2013-05-02 11:43:00,
2013-05-02 07:48:00,43.1,41.5,30.31,North,5,0.0,0.0,94,0.00,,---,0.00,137.00,VWS V14.00,2013-05-02 11:48:00,
2013-05-02 07:53:00,43.9,42.6,30.31,North,5,0.0,0.0,95,0.00,,---,0.00,125.00,VWS V14.00,2013-05-02 11:53:00,
2013-05-02 07:58:00,44.7,43.1,30.31,North,5,0.0,0.0,94,0.00,,---,0.00,102.00,VWS V14.00,2013-05-02 11:58:00,
2013-05-02 08:00:00,45.1,43.2,30.31,North,5,0.0,0.0,93,0.00,,---,0.00,105.00,VWS V14.00,2013-05-02 12:00:00,
2013-05-02 08:03:00,45.4,43.5,30.31,North,5,0.0,0.0,93,0.00,,---,0.00,88.00,VWS V14.00,2013-05-02 12:03:00,
2013-05-02 08:08:00,46.2,44.0,30.31,North,5,0.0,0.0,92,0.00,,---,0.00,125.00,VWS V14.00,2013-05-02 12:08:00,
2013-05-02 08:13:00,47.0,44.5,30.31,North,5,0.0,0.0,91,0.00,,---,0.00,167.00,VWS V14.00,2013-05-02 12:13:00,
2013-05-02 08:18:00,47.9,44.8,30.31,North,5,0.0,0.0,89,0.00,,---,0.00,258.00,VWS V14.00,2013-05-02 12:18:00,
2013-05-02 08:23:00,48.9,45.8,30.31,North,5,0.0,0.0,89,0.00,,---,0.00,338.00,VWS V14.00,2013-05-02 12:23:00,
2013-05-02 08:28:00,49.9,46.2,30.31,North,5,0.0,1.0,87,0.00,,---,0.00,357.00,VWS V14.00,2013-05-02 12:28:00,
2013-05-02 08:30:00,50.7,47.0,30.31,North,5,0.0,1.0,87,0.00,,---,0.00,367.00,VWS V14.00,2013-05-02 12:30:00,
2013-05-02 08:33:00,51.5,46.8,30.31,North,5,0.0,2.0,84,0.00,,---,0.00,369.00,VWS V14.00,2013-05-02 12:33:00,
2013-05-02 08:38:00,53.0,46.7,30.31,North,11,0.0,3.0,79,0.00,,---,0.00,390.00,VWS V14.00,2013-05-02 12:38:00,
2013-05-02 08:43:00,54.3,45.8,30.31,East,82,1.0,3.0,73,0.00,,---,0.00,397.00,VWS V14.00,2013-05-02 12:43:00,
2013-05-02 08:48:00,55.5,45.9,30.31,ESE,122,0.0,5.0,70,0.00,,---,0.00,431.00,VWS V14.00,2013-05-02 12:48:00,
2013-05-02 08:53:00,56.4,46.0,30.31,ESE,122,0.0,5.0,68,0.00,,---,0.00,445.00,VWS V14.00,2013-05-02 12:53:00,
2013-05-02 08:58:00,57.4,46.2,30.31,NE,36,0.0,5.0,66,0.00,,---,0.00,464.00,VWS V14.00,2013-05-02 12:58:00,
2013-05-02 09:00:00,57.9,45.4,30.31,East,86,0.0,5.0,63,0.00,,---,0.00,471.00,VWS V14.00,2013-05-02 13:00:00,
2013-05-02 09:03:00,58.3,46.2,30.31,East,88,0.0,2.0,64,0.00,,---,0.00,480.00,VWS V14.00,2013-05-02 13:03:00,
2013-05-02 09:08:00,59.1,46.1,30.31,ESE,112,2.0,4.0,62,0.00,,---,0.00,494.00,VWS V14.00,2013-05-02 13:08:00,
2013-05-02 09:13:00,59.6,45.3,30.31,ESE,113,1.0,5.0,59,0.00,,---,0.00,508.00,VWS V14.00,2013-05-02 13:13:00,
2013-05-02 09:18:00,60.3,45.5,30.31,ENE,69,3.0,5.0,58,0.00,,---,0.00,526.00,VWS V14.00,2013-05-02 13:18:00,
2013-05-02 09:23:00,60.7,45.8,30.31,NNE,30,1.0,5.0,58,0.00,,---,0.00,543.00,VWS V14.00,2013-05-02 13:23:00,
2013-05-02 09:28:00,61.2,46.8,30.31,SSE,156,2.0,5.0,59,0.00,,---,0.00,559.00,VWS V14.00,2013-05-02 13:28:00,
2013-05-02 09:30:00,61.6,45.8,30.31,SE,146,1.0,5.0,56,0.00,,---,0.00,568.00,VWS V14.00,2013-05-02 13:30:00,
2013-05-02 09:33:00,61.8,45.5,30.31,SE,144,0.0,2.0,55,0.00,,---,0.00,575.00,VWS V14.00,2013-05-02 13:33:00,
2013-05-02 09:38:00,62.3,46.0,30.31,East,96,1.0,5.0,55,0.00,,---,0.00,592.00,VWS V14.00,2013-05-02 13:38:00,
2013-05-02 09:43:00,62.9,45.0,30.30,East,101,2.0,7.0,52,0.00,,---,0.00,606.00,VWS V14.00,2013-05-02 13:43:00,
2013-05-02 09:48:00,63.0,45.6,30.30,SSE,156,1.0,7.0,53,0.00,,---,0.00,624.00,VWS V14.00,2013-05-02 13:48:00,
2013-05-02 09:53:00,63.3,44.4,30.30,ESE,122,0.0,7.0,50,0.00,,---,0.00,638.00,VWS V14.00,2013-05-02 13:53:00,
2013-05-02 09:58:00,63.7,45.8,30.30,ESE,121,0.0,7.0,52,0.00,,---,0.00,652.00,VWS V14.00,2013-05-02 13:58:00,
2013-05-02 10:00:00,64.0,46.5,30.30,ESE,107,4.0,7.0,53,0.00,,---,0.00,659.00,VWS V14.00,2013-05-02 14:00:00,
2013-05-02 10:03:00,64.4,45.4,30.29,ESE,103,0.0,4.0,50,0.00,,---,0.00,668.00,VWS V14.00,2013-05-02 14:03:00,
2013-05-02 10:08:00,65.2,46.6,30.29,NNE,24,2.0,4.0,51,0.00,,---,0.00,686.00,VWS V14.00,2013-05-02 14:08:00,
2013-05-02 10:13:00,65.7,45.5,30.29,ESE,105,1.0,6.0,48,0.00,,---,0.00,696.00,VWS V14.00,2013-05-02 14:13:00,
2013-05-02 10:18:00,65.9,45.1,30.29,SE,128,0.0,6.0,47,0.00,,---,0.00,715.00,VWS V14.00,2013-05-02 14:18:00,
2013-05-02 10:23:00,66.1,44.7,30.29,ESE,121,5.0,6.0,46,0.00,,---,0.00,728.00,VWS V14.00,2013-05-02 14:23:00,
2013-05-02 10:28:00,66.2,46.0,30.29,ENE,67,0.0,6.0,48,0.00,,---,0.00,745.00,VWS V14.00,2013-05-02 14:28:00,
2013-05-02 10:30:00,66.5,48.3,30.30,ENE,71,0.0,6.0,52,0.00,,---,0.00,754.00,VWS V14.00,2013-05-02 14:30:00,
2013-05-02 10:33:00,66.7,45.8,30.29,East,95,4.0,7.0,47,0.00,,---,0.00,761.00,VWS V14.00,2013-05-02 14:33:00,
2013-05-02 10:38:00,67.0,46.1,30.30,SSE,150,6.0,7.0,47,0.00,,---,0.00,777.00,VWS V14.00,2013-05-02 14:38:00,
2013-05-02 10:44:00,67.2,46.3,30.30,East,81,2.0,7.0,47,0.00,,---,0.00,793.00,VWS V14.00,2013-05-02 14:44:00,
2013-05-02 10:49:00,67.7,48.4,30.29,East,79,3.0,7.0,50,0.00,,---,0.00,809.00,VWS V14.00,2013-05-02 14:49:00,
2013-05-02 10:54:00,68.2,46.7,30.30,NE,51,3.0,7.0,46,0.00,,---,0.00,824.00,VWS V14.00,2013-05-02 14:54:00,
2013-05-02 10:59:00,68.5,48.1,30.29,North,355,4.0,7.0,48,0.00,,---,0.00,837.00,VWS V14.00,2013-05-02 14:59:00,
2013-05-02 11:00:00,68.4,46.8,30.29,ENE,59,4.0,7.0,46,0.00,,---,0.00,833.00,VWS V14.00,2013-05-02 15:00:00,
2013-05-02 11:04:00,68.3,46.2,30.29,East,97,5.0,7.0,45,0.00,,---,0.00,831.00,VWS V14.00,2013-05-02 15:04:00,
2013-05-02 11:09:00,68.4,46.2,30.29,ESE,105,0.0,11.0,45,0.00,,---,0.00,830.00,VWS V14.00,2013-05-02 15:09:00,
2013-05-02 11:14:00,68.6,47.6,30.29,ESE,107,2.0,11.0,47,0.00,,---,0.00,809.00,VWS V14.00,2013-05-02 15:14:00,
2013-05-02 11:19:00,68.9,47.3,30.29,NE,41,3.0,11.0,46,0.00,,---,0.00,830.00,VWS V14.00,2013-05-02 15:19:00,
2013-05-02 11:24:00,69.0,48.0,30.29,North,10,3.0,11.0,47,0.00,,---,0.00,837.00,VWS V14.00,2013-05-02 15:24:00,
2013-05-02 11:29:00,69.3,49.9,30.29,East,84,1.0,11.0,50,0.00,,---,0.00,828.00,VWS V14.00,2013-05-02 15:29:00,
2013-05-02 11:30:00,69.5,49.5,30.29,SE,129,4.0,11.0,49,0.00,,---,0.00,826.00,VWS V14.00,2013-05-02 15:30:00,
2013-05-02 11:34:00,69.6,48.5,30.28,East,95,6.0,8.0,47,0.00,,---,0.00,854.00,VWS V14.00,2013-05-02 15:34:00,
2013-05-02 11:39:00,69.7,49.2,30.28,ESE,109,1.0,8.0,48,0.00,,---,0.00,828.00,VWS V14.00,2013-05-02 15:39:00,
2013-05-02 11:44:00,70.0,49.4,30.28,SE,126,0.0,8.0,48,0.00,,---,0.00,863.00,VWS V14.00,2013-05-02 15:44:00,
2013-05-02 11:49:00,70.3,49.1,30.27,NE,55,0.0,8.0,47,0.00,,---,0.00,914.00,VWS V14.00,2013-05-02 15:49:00,
2013-05-02 11:54:00,70.6,49.4,30.27,SSW,202,5.0,8.0,47,0.00,,---,0.00,844.00,VWS V14.00,2013-05-02 15:54:00,
2013-05-02 11:59:00,70.7,49.5,30.27,ESE,111,5.0,8.0,47,0.00,,---,0.00,879.00,VWS V14.00,2013-05-02 15:59:00,
2013-05-02 12:00:00,70.6,47.0,30.27,ESE,109,2.0,8.0,43,0.00,,---,0.00,933.00,VWS V14.00,2013-05-02 16:00:00,
2013-05-02 12:04:00,70.6,49.4,30.27,NE,39,0.0,5.0,47,0.00,,---,0.00,932.00,VWS V14.00,2013-05-02 16:04:00,
2013-05-02 12:10:00,70.9,47.9,30.27,SSW,208,0.0,7.0,44,0.00,,---,0.00,932.00,VWS V14.00,2013-05-02 16:10:00,
2013-05-02 12:15:00,71.4,50.1,30.27,ESE,114,4.0,7.0,47,0.00,,---,0.00,947.00,VWS V14.00,2013-05-02 16:15:00,
2013-05-02 12:20:00,71.7,50.4,30.26,SSE,147,1.0,8.0,47,0.00,,---,0.00,956.00,VWS V14.00,2013-05-02 16:20:00,
2013-05-02 12:25:00,72.1,47.1,30.26,East,80,1.0,8.0,41,0.00,,---,0.00,942.00,VWS V14.00,2013-05-02 16:25:00,
2013-05-02 12:30:00,72.4,47.4,30.26,South,184,2.0,8.0,41,0.00,,---,0.00,909.00,VWS V14.00,2013-05-02 16:30:00,
2013-05-02 12:35:00,72.0,47.0,30.26,NNW,333,2.0,8.0,41,0.00,,---,0.00,870.00,VWS V14.00,2013-05-02 16:35:00,
2013-05-02 12:40:00,72.1,49.6,30.25,South,182,2.0,8.0,45,0.00,,---,0.00,954.00,VWS V14.00,2013-05-02 16:40:00,
2013-05-02 12:45:00,72.4,47.4,30.25,SSW,194,2.0,8.0,41,0.00,,---,0.00,974.00,VWS V14.00,2013-05-02 16:45:00,
2013-05-02 12:50:00,72.6,50.7,30.25,East,94,2.0,8.0,46,0.00,,---,0.00,963.00,VWS V14.00,2013-05-02 16:50:00,
2013-05-02 12:55:00,73.1,49.9,30.25,ESE,123,6.0,8.0,44,0.00,,---,0.00,954.00,VWS V14.00,2013-05-02 16:55:00,
2013-05-02 13:00:00,73.2,52.4,30.25,South,182,1.0,8.0,48,0.00,,---,0.00,962.00,VWS V14.00,2013-05-02 17:00:00,
2013-05-02 13:05:00,73.5,47.7,30.24,ESE,116,2.0,9.0,40,0.00,,---,0.00,963.00,VWS V14.00,2013-05-02 17:05:00,
2013-05-02 13:10:00,73.4,48.9,30.24,NE,53,0.0,9.0,42,0.00,,---,0.00,976.00,VWS V14.00,2013-05-02 17:10:00,
2013-05-02 13:16:00,73.6,50.4,30.24,NE,43,5.0,9.0,44,0.00,,---,0.00,981.00,VWS V14.00,2013-05-02 17:16:00,
2013-05-02 13:21:00,73.9,48.1,30.24,ENE,65,0.0,10.0,40,0.00,,---,0.00,976.00,VWS V14.00,2013-05-02 17:21:00,
2013-05-02 13:25:00,74.1,49.6,30.24,NNE,32,2.0,10.0,42,0.00,,---,0.00,977.00,VWS V14.00,2013-05-02 17:25:00,
2013-05-02 13:30:00,74.2,46.3,30.24,NE,55,0.0,10.0,37,0.00,,---,0.00,974.00,VWS V14.00,2013-05-02 17:30:00,
2013-05-02 13:36:00,74.3,47.1,30.24,NNE,17,3.0,11.0,38,0.00,,---,0.00,974.00,VWS V14.00,2013-05-02 17:36:00,
2013-05-02 13:41:00,74.3,44.9,30.24,ESE,116,0.0,11.0,35,0.00,,---,0.00,956.00,VWS V14.00,2013-05-02 17:41:00,
2013-05-02 13:46:00,74.4,47.9,30.23,East,99,2.0,11.0,39,0.00,,---,0.00,939.00,VWS V14.00,2013-05-02 17:46:00,
2013-05-02 13:51:00,74.5,44.3,30.23,South,169,0.0,11.0,34,0.00,,---,0.00,974.00,VWS V14.00,2013-05-02 17:51:00,
2013-05-02 13:56:00,74.5,41.9,30.23,ESE,115,6.0,11.0,31,0.00,,---,0.00,977.00,VWS V14.00,2013-05-02 17:56:00,
2013-05-02 14:00:00,74.6,41.2,30.23,East,84,2.0,11.0,30,0.00,,---,0.00,970.00,VWS V14.00,2013-05-02 18:00:00,
2013-05-02 14:01:00,74.5,41.1,30.23,East,84,3.0,11.0,30,0.00,,---,0.00,970.00,VWS V14.00,2013-05-02 18:01:00,
2013-05-02 14:06:00,74.7,41.2,30.23,NNE,21,0.0,5.0,30,0.00,,---,0.00,965.00,VWS V14.00,2013-05-02 18:06:00,
2013-05-02 14:11:00,74.8,43.0,30.22,NNW,333,9.0,9.0,32,0.00,,---,0.00,963.00,VWS V14.00,2013-05-02 18:11:00,
2013-05-02 14:16:00,74.7,42.1,30.21,North,360,4.0,9.0,31,0.00,,---,0.00,954.00,VWS V14.00,2013-05-02 18:16:00,
2013-05-02 14:21:00,74.6,42.0,30.21,NNW,343,0.0,9.0,31,0.00,,---,0.00,944.00,VWS V14.00,2013-05-02 18:21:00,
2013-05-02 14:26:00,75.1,39.8,30.21,NNE,32,4.0,9.0,28,0.00,,---,0.00,946.00,VWS V14.00,2013-05-02 18:26:00,
2013-05-02 14:30:00,75.3,40.9,30.21,SSE,147,2.0,9.0,29,0.00,,---,0.00,933.00,VWS V14.00,2013-05-02 18:30:00,
2013-05-02 14:31:00,75.3,41.8,30.21,SE,133,2.0,9.0,30,0.00,,---,0.00,933.00,VWS V14.00,2013-05-02 18:31:00,
2013-05-02 14:36:00,75.7,44.6,30.20,ESE,105,1.0,7.0,33,0.00,,---,0.00,925.00,VWS V14.00,2013-05-02 18:36:00,
2013-05-02 14:41:00,76.1,42.5,30.20,NE,50,0.0,7.0,30,0.00,,---,0.00,916.00,VWS V14.00,2013-05-02 18:41:00,
2013-05-02 15:00:00,76.8,40.3,30.20,NNE,32,3.0,11.0,27,0.00,,---,0.00,893.00,VWS V14.00,2013-05-02 19:00:00,
2013-05-02 15:30:00,77.8,32.3,30.19,East,98,1.0,12.0,19,0.00,,---,0.00,863.00,VWS V14.00,2013-05-02 19:30:00,
2013-05-02 16:00:00,78.4,34.0,30.17,SE,134,5.0,11.0,20,0.00,,---,0.00,788.00,VWS V14.00,2013-05-02 20:00:00,
2013-05-02 16:30:00,78.2,37.4,30.16,ESE,110,2.0,11.0,23,0.00,,---,0.00,698.00,VWS V14.00,2013-05-02 20:30:00,
2013-05-02 17:00:00,78.3,32.7,30.15,ESE,114,7.0,9.0,19,0.00,,---,0.00,622.00,VWS V14.00,2013-05-02 21:00:00,
2013-05-02 17:30:00,77.2,39.7,30.16,East,82,3.0,13.0,26,0.00,,---,0.00,536.00,VWS V14.00,2013-05-02 21:30:00,
2013-05-02 18:00:00,75.8,41.3,30.15,ESE,108,4.0,14.0,29,0.00,,---,0.00,206.00,VWS V14.00,2013-05-02 22:00:00,
2013-05-02 18:30:00,74.3,40.9,30.15,East,101,6.0,12.0,30,0.00,,---,0.00,153.00,VWS V14.00,2013-05-02 22:30:00,
2013-05-02 19:00:00,73.5,40.2,30.15,East,98,8.0,15.0,30,0.00,,---,0.00,130.00,VWS V14.00,2013-05-02 23:00:00,
2013-05-02 19:30:00,71.8,36.0,30.16,East,81,5.0,14.0,27,0.00,,---,0.00,67.00,VWS V14.00,2013-05-02 23:30:00,
2013-05-02 20:00:00,69.8,37.0,30.16,East,84,6.0,13.0,30,0.00,,---,0.00,16.00,VWS V14.00,2013-05-03 00:00:00,
2013-05-02 20:30:00,68.0,37.1,30.16,ESE,112,4.0,11.0,32,0.00,,---,0.00,4.00,VWS V14.00,2013-05-03 00:30:00,
2013-05-02 21:00:00,66.3,36.4,30.17,ESE,112,3.0,9.0,33,0.00,,---,0.00,0.00,VWS V14.00,2013-05-03 01:00:00,
2013-05-02 21:30:00,65.3,33.1,30.18,ESE,112,3.0,11.0,30,0.00,,---,0.00,0.00,VWS V14.00,2013-05-03 01:30:00,
2013-05-02 22:00:00,63.8,35.7,30.18,ESE,112,3.0,10.0,35,0.00,,---,0.00,0.00,VWS V14.00,2013-05-03 02:00:00,
2013-05-02 22:30:00,62.3,37.7,30.18,ESE,112,1.0,7.0,40,0.00,,---,0.00,0.00,VWS V14.00,2013-05-03 02:30:00,
2013-05-02 23:00:00,60.5,39.1,30.18,ESE,112,1.0,5.0,45,0.00,,---,0.00,0.00,VWS V14.00,2013-05-03 03:00:00,
2013-05-02 23:30:00,59.7,40.5,30.19,ESE,112,1.0,5.0,49,0.00,,---,0.00,0.00,VWS V14.00,2013-05-03 03:30:00,